Time;durP1;ratioP1;P1;durP2;ratioP2;P2;SDS_P1;SDS_P2;PMS_P1;PMS_P2;Temp;Humidity;BMP_temperature;BMP_pressure;BME280_temperature;BME280_humidity;BME280_pressure;Samples;Min_cycle;Max_cycle;Signal;HPM_P1;HPM_P2
2022/06/27 00:09:57;;;;;;;6.68;4.28;;;;;;;21.66;74.51;100221.06;31288931;28;20059;-77
2022/06/27 00:24:59;;;;;;;12.20;4.20;;;;;;;21.54;74.65;100213.91;31307721;28;20085;-75
2022/06/27 00:40:01;;;;;;;8.70;4.10;;;;;;;21.41;74.55;100222.63;31281519;28;20423;-76
2022/06/27 00:55:06;;;;;;;5.07;3.85;;;;;;;21.31;75.04;100222.03;31278852;28;20072;-77
2022/06/27 01:10:08;;;;;;;5.65;3.97;;;;;;;21.27;75.16;100224.25;31325895;28;20044;-76
2022/06/27 01:25:14;;;;;;;7.27;4.13;;;;;;;21.29;75.28;100227.28;31312732;28;20083;-77
2022/06/27 01:40:16;;;;;;;7.82;4.70;;;;;;;21.31;75.34;100227.56;31313317;28;20136;-77
2022/06/27 01:55:19;;;;;;;7.72;4.38;;;;;;;21.31;76.00;100224.78;31266369;28;20049;-77
2022/06/27 02:10:21;;;;;;;5.77;3.80;;;;;;;21.36;75.92;100226.84;31283671;28;20085;-77
2022/06/27 02:25:23;;;;;;;5.43;3.83;;;;;;;21.49;76.12;100222.94;31277057;28;20054;-76
2022/06/27 02:40:29;;;;;;;7.70;4.40;;;;;;;21.52;76.07;100221.94;31311157;28;20429;-76
2022/06/27 02:55:37;;;;;;;7.35;4.20;;;;;;;21.57;76.02;100218.47;31285288;28;20057;-76
2022/06/27 03:10:39;;;;;;;7.93;4.78;;;;;;;21.75;76.12;100229.13;31278359;28;20053;-77
2022/06/27 03:25:40;;;;;;;9.13;4.75;;;;;;;21.85;76.15;100232.47;31253603;28;20050;-76
2022/06/27 03:40:43;;;;;;;8.33;5.53;;;;;;;21.88;76.38;100237.03;31281244;28;20049;-76
2022/06/27 03:55:45;;;;;;;10.38;4.93;;;;;;;22.20;75.91;100229.44;31272219;28;20064;-76
2022/06/27 04:10:46;;;;;;;7.88;5.05;;;;;;;22.68;74.20;100216.28;31289932;28;20054;-76
2022/06/27 04:25:49;;;;;;;9.33;5.40;;;;;;;23.05;72.31;100220.94;31291884;28;20423;-77
2022/06/27 04:40:50;;;;;;;12.73;5.97;;;;;;;22.97;71.74;100222.66;31312424;28;20056;-76
2022/06/27 04:55:54;;;;;;;7.70;5.07;;;;;;;22.87;71.32;100235.25;31278587;28;20045;-77
2022/06/27 05:10:56;;;;;;;7.30;4.80;;;;;;;23.33;70.11;100238.31;31292707;28;20076;-76
2022/06/27 05:26:01;;;;;;;9.27;5.03;;;;;;;23.77;67.17;100231.28;31298192;28;20395;-77
2022/06/27 05:41:03;;;;;;;9.88;4.75;;;;;;;25.03;63.74;100235.34;31292844;28;20132;-76
2022/06/27 05:56:06;;;;;;;9.80;4.80;;;;;;;25.79;59.37;100237.25;31282759;28;20057;-77
2022/06/27 06:11:10;;;;;;;4.88;3.55;;;;;;;26.53;56.04;100219.25;31299105;28;20080;-76
2022/06/27 06:26:16;;;;;;;9.02;4.38;;;;;;;27.16;54.20;100231.78;31298687;28;20053;-76
2022/06/27 06:41:19;;;;;;;4.90;3.60;;;;;;;27.80;51.14;100234.53;31291343;28;20045;-77
2022/06/27 06:56:21;;;;;;;8.23;3.53;;;;;;;27.92;49.54;100230.25;31278139;28;20064;-76
2022/06/27 07:11:25;;;;;;;5.70;3.53;;;;;;;28.70;45.94;100239.09;31290401;28;20044;-76
2022/06/27 07:26:29;;;;;;;4.47;2.60;;;;;;;29.36;43.62;100236.78;31277294;28;20422;-76
2022/06/27 07:41:32;;;;;;;9.82;3.80;;;;;;;29.06;39.70;100242.09;31309936;28;20510;-75
2022/06/27 07:56:34;;;;;;;4.65;2.45;;;;;;;29.74;39.70;100236.38;31295650;28;20568;-86
2022/06/27 08:11:56;;;;;;;4.28;2.47;;;;;;;30.38;39.22;100236.41;31292570;28;20567;-77
2022/06/27 08:26:59;;;;;;;2.38;2.03;;;;;;;31.23;35.06;100243.75;31316807;28;20559;-76
2022/06/27 08:42:02;;;;;;;7.60;3.63;;;;;;;29.82;35.74;100254.72;31296537;28;20593;-76
2022/06/27 08:57:08;;;;;;;6.20;3.47;;;;;;;29.82;35.49;100260.31;31337694;28;20053;-82
2022/06/27 09:12:12;;;;;;;6.72;3.10;;;;;;;31.19;33.86;100260.22;31305641;28;20056;-78
2022/06/27 09:27:35;;;;;;;13.73;2.85;;;;;;;31.76;34.15;100248.66;31276501;28;20549;-69
2022/06/27 09:42:42;;;;;;;5.72;2.60;;;;;;;32.46;31.18;100228.25;31287719;28;20479;-79
2022/06/27 09:57:46;;;;;;;5.32;2.72;;;;;;;32.86;29.25;100220.56;31282070;28;20049;-77
2022/06/27 10:12:59;;;;;;;7.55;3.00;;;;;;;33.24;28.13;100225.19;31280573;28;20438;-75
2022/06/27 10:28:07;;;;;;;6.10;3.08;;;;;;;32.47;29.10;100215.72;31279036;28;20061;-79
2022/06/27 10:43:35;;;;;;;6.10;4.30;;;;;;;31.28;31.37;100223.22;31277696;28;20050;-70
2022/06/27 10:58:37;;;;;;;8.63;3.50;;;;;;;31.35;31.70;100211.25;31270526;28;20155;-70
2022/06/27 11:13:40;;;;;;;9.15;4.50;;;;;;;31.59;30.91;100209.19;31263256;28;20055;-69
2022/06/27 11:44:08;;;;;;;5.03;2.30;;;;;;;31.12;30.13;100204.91;31274937;28;20060;-71
2022/06/27 11:59:12;;;;;;;3.83;2.33;;;;;;;31.29;29.61;100202.28;31263449;28;20051;-69
2022/06/27 12:14:15;;;;;;;6.55;2.10;;;;;;;31.70;29.45;100211.63;31257968;28;20052;-70
2022/06/27 12:29:18;;;;;;;6.50;1.55;;;;;;;30.98;33.01;100206.31;31260056;28;20229;-69
2022/06/27 12:44:20;;;;;;;4.18;1.83;;;;;;;30.25;35.09;100224.56;31255393;28;20061;-68
2022/06/27 12:59:22;;;;;;;7.50;1.90;;;;;;;30.08;36.11;100213.84;31265798;28;20526;-69
2022/06/27 13:14:24;;;;;;;4.60;1.70;;;;;;;30.05;36.42;100210.09;31286707;28;20053;-77
2022/06/27 13:29:26;;;;;;;3.33;1.67;;;;;;;29.89;36.99;100202.91;31289623;28;21144;-76
2022/06/27 13:44:32;;;;;;;4.10;1.75;;;;;;;29.56;37.62;100198.19;31315330;28;20053;-78
2022/06/27 13:59:34;;;;;;;4.47;1.60;;;;;;;29.32;38.25;100191.66;31283137;28;20080;-80
2022/06/27 14:14:36;;;;;;;3.42;1.40;;;;;;;28.99;38.15;100186.91;31315972;28;21002;-76
2022/06/27 14:29:38;;;;;;;2.78;1.80;;;;;;;28.67;39.74;100184.31;31305447;28;20414;-80
2022/06/27 14:44:40;;;;;;;3.95;1.40;;;;;;;28.46;40.06;100192.66;31306092;28;20210;-77
2022/06/27 14:59:42;;;;;;;3.05;1.67;;;;;;;28.52;39.82;100188.44;31319302;28;20078;-81
2022/06/27 15:14:44;;;;;;;5.93;2.17;;;;;;;28.63;40.22;100184.63;31283165;28;20041;-81
2022/06/27 15:29:46;;;;;;;2.78;1.35;;;;;;;28.53;40.47;100192.00;31282943;28;20144;-79
2022/06/27 15:44:49;;;;;;;3.42;2.70;;;;;;;28.49;40.76;100186.75;31310414;28;20049;-85
2022/06/27 15:59:50;;;;;;;5.25;3.00;;;;;;;28.40;41.49;100189.22;31286371;28;20056;-74
2022/06/27 16:14:52;;;;;;;4.13;2.20;;;;;;;28.31;41.53;100186.91;31290187;28;20046;-75
2022/06/27 16:29:54;;;;;;;9.07;6.50;;;;;;;28.12;42.29;100193.31;31279606;28;20041;-74
2022/06/27 16:44:56;;;;;;;6.22;2.55;;;;;;;27.90;42.91;100199.34;31301547;28;20491;-74
2022/06/27 16:59:58;;;;;;;10.32;4.82;;;;;;;27.72;43.70;100208.56;31314518;28;20055;-75
2022/06/27 17:15:00;;;;;;;6.35;3.35;;;;;;;27.48;43.76;100203.88;31286054;28;20053;-74
2022/06/27 17:30:04;;;;;;;16.52;5.63;;;;;;;27.21;44.73;100214.22;31299808;28;20145;-76
2022/06/27 17:45:08;;;;;;;6.75;3.50;;;;;;;26.89;46.26;100216.22;31312755;28;20140;-75
2022/06/27 18:00:12;;;;;;;10.88;4.60;;;;;;;26.67;46.48;100229.19;31314886;28;20056;-74
2022/06/27 18:15:14;;;;;;;4.20;2.85;;;;;;;26.56;46.75;100253.63;31294056;28;20140;-74
2022/06/27 18:30:17;;;;;;;5.82;3.67;;;;;;;26.39;47.09;100259.41;31296695;28;20398;-75
2022/06/27 18:45:42;;;;;;;8.55;3.40;;;;;;;26.14;47.70;100267.00;31297973;28;20057;-75
2022/06/27 19:00:44;;;;;;;8.27;4.70;;;;;;;26.00;47.72;100270.91;31281794;28;20111;-75
2022/06/27 19:15:46;;;;;;;44.45;24.25;;;;;;;25.72;49.85;100265.66;31259087;28;20530;-70
2022/06/27 19:30:49;;;;;;;6.57;4.30;;;;;;;25.34;52.86;100259.84;31251896;28;20053;-69
2022/06/27 19:45:51;;;;;;;8.18;3.65;;;;;;;25.16;55.18;100260.50;31257992;28;20064;-71
2022/06/27 20:00:53;;;;;;;;;;;;;;;25.12;56.54;100260.03;31281797;28;20162;-71
2022/06/27 20:15:55;;;;;;;4.63;2.50;;;;;;;25.03;55.30;100246.47;31260380;28;19924;-69
2022/06/27 20:30:57;;;;;;;6.53;4.20;;;;;;;24.91;55.70;100256.09;31250890;28;20045;-70
2022/06/27 20:45:59;;;;;;;4.55;3.08;;;;;;;24.83;55.99;100272.53;31260661;28;20069;-69
2022/06/27 21:01:01;;;;;;;8.88;3.83;;;;;;;24.78;55.66;100276.88;31246333;28;20053;-69
2022/06/27 21:16:03;;;;;;;;;;;;;;;24.73;54.03;100277.63;31264393;28;20044;-69
2022/06/27 21:31:06;;;;;;;10.20;3.53;;;;;;;24.66;53.53;100278.16;31262143;28;19947;-70
2022/06/27 21:46:08;;;;;;;19.40;6.43;;;;;;;24.56;53.08;100282.53;31274807;28;20071;-71
2022/06/27 22:01:10;;;;;;;17.67;8.10;;;;;;;24.54;52.59;100273.94;31299298;28;20048;-69
2022/06/27 22:16:12;;;;;;;32.45;11.40;;;;;;;24.60;52.03;100274.66;31308737;28;20135;-69
2022/06/27 22:31:15;;;;;;;35.27;13.47;;;;;;;24.63;51.43;100273.63;31266495;28;20052;-70
2022/06/27 22:46:17;;;;;;;40.85;15.52;;;;;;;24.62;51.00;100272.13;31271605;28;20052;-69
2022/06/27 23:01:19;;;;;;;15.53;6.73;;;;;;;24.50;50.02;100267.16;31255001;28;20045;-70
2022/06/27 23:16:21;;;;;;;12.37;5.53;;;;;;;24.37;48.55;100256.59;31279452;28;20407;-69
2022/06/27 23:31:23;;;;;;;20.87;5.80;;;;;;;24.24;47.72;100239.72;31286314;28;20466;-70
2022/06/27 23:46:25;;;;;;;13.00;5.43;;;;;;;23.99;48.77;100256.19;31264819;28;20084;-70
